sensor_id;sensor_type;location;lat;lon;timestamp;pressure;altitude;pressure_sealevel;temperature;humidity
28588;BME280;15787;49.662;10.162;2023-09-18T00:01:10;98531.34;;;19.51;93.38
28588;BME280;15787;49.662;10.162;2023-09-18T00:03:43;98526.16;;;19.44;94.09
28588;BME280;15787;49.662;10.162;2023-09-18T00:06:16;98510.16;;;19.41;94.03
28588;BME280;15787;49.662;10.162;2023-09-18T00:08:49;98511.53;;;19.51;93.93
28588;BME280;15787;49.662;10.162;2023-09-18T00:11:24;98508.78;;;19.62;93.70
28588;BME280;15787;49.662;10.162;2023-09-18T00:13:57;98506.47;;;18.98;94.59
28588;BME280;15787;49.662;10.162;2023-09-18T00:16:30;98500.44;;;19.16;96.05
28588;BME280;15787;49.662;10.162;2023-09-18T00:19:22;98505.00;;;19.08;95.09
28588;BME280;15787;49.662;10.162;2023-09-18T00:21:56;98504.94;;;19.34;94.67
28588;BME280;15787;49.662;10.162;2023-09-18T00:24:32;98499.47;;;19.25;94.38
28588;BME280;15787;49.662;10.162;2023-09-18T00:27:06;98496.81;;;19.16;94.66
28588;BME280;15787;49.662;10.162;2023-09-18T00:29:39;98499.97;;;19.23;95.02
28588;BME280;15787;49.662;10.162;2023-09-18T00:32:12;98493.00;;;19.19;95.48
28588;BME280;15787;49.662;10.162;2023-09-18T00:34:45;98488.38;;;19.21;95.82
28588;BME280;15787;49.662;10.162;2023-09-18T00:37:18;98498.81;;;19.10;95.92
28588;BME280;15787;49.662;10.162;2023-09-18T00:39:51;98489.97;;;19.28;95.77
28588;BME280;15787;49.662;10.162;2023-09-18T00:42:25;98482.38;;;19.39;95.39
28588;BME280;15787;49.662;10.162;2023-09-18T00:44:58;98484.16;;;19.37;95.21
28588;BME280;15787;49.662;10.162;2023-09-18T00:47:31;98475.41;;;19.40;95.09
28588;BME280;15787;49.662;10.162;2023-09-18T00:50:06;98472.50;;;19.35;95.18
28588;BME280;15787;49.662;10.162;2023-09-18T00:52:42;98480.03;;;19.38;96.40
28588;BME280;15787;49.662;10.162;2023-09-18T00:55:15;98480.03;;;19.38;96.52
28588;BME280;15787;49.662;10.162;2023-09-18T00:57:50;98477.06;;;19.52;96.62
28588;BME280;15787;49.662;10.162;2023-09-18T01:00:23;98473.41;;;19.46;96.37
28588;BME280;15787;49.662;10.162;2023-09-18T01:02:56;98473.19;;;19.55;95.97
28588;BME280;15787;49.662;10.162;2023-09-18T01:05:31;98472.66;;;19.51;94.88
28588;BME280;15787;49.662;10.162;2023-09-18T01:08:05;98473.97;;;19.56;95.50
28588;BME280;15787;49.662;10.162;2023-09-18T01:10:44;98474.66;;;19.45;95.28
28588;BME280;15787;49.662;10.162;2023-09-18T01:13:29;98474.97;;;19.53;95.58
28588;BME280;15787;49.662;10.162;2023-09-18T01:16:04;98466.19;;;19.45;95.62
28588;BME280;15787;49.662;10.162;2023-09-18T01:18:48;98457.72;;;19.51;96.21
28588;BME280;15787;49.662;10.162;2023-09-18T01:21:21;98456.94;;;19.50;96.40
28588;BME280;15787;49.662;10.162;2023-09-18T01:23:56;98451.97;;;19.40;95.94
28588;BME280;15787;49.662;10.162;2023-09-18T01:26:28;98449.16;;;19.40;96.64
28588;BME280;15787;49.662;10.162;2023-09-18T01:29:02;98445.41;;;19.23;98.51
28588;BME280;15787;49.662;10.162;2023-09-18T01:31:35;98441.38;;;19.35;99.13
28588;BME280;15787;49.662;10.162;2023-09-18T01:34:08;98448.63;;;19.05;99.52
28588;BME280;15787;49.662;10.162;2023-09-18T01:36:42;98448.97;;;19.49;97.98
28588;BME280;15787;49.662;10.162;2023-09-18T01:39:18;98445.28;;;19.37;96.86
28588;BME280;15787;49.662;10.162;2023-09-18T01:41:52;98440.63;;;19.34;96.81
28588;BME280;15787;49.662;10.162;2023-09-18T01:44:25;98436.63;;;19.15;97.32
28588;BME280;15787;49.662;10.162;2023-09-18T01:47:00;98445.97;;;19.32;98.04
28588;BME280;15787;49.662;10.162;2023-09-18T01:49:35;98438.75;;;19.26;98.37
28588;BME280;15787;49.662;10.162;2023-09-18T01:52:09;98424.81;;;19.17;97.91
28588;BME280;15787;49.662;10.162;2023-09-18T01:54:44;98429.69;;;19.16;97.96
28588;BME280;15787;49.662;10.162;2023-09-18T01:57:17;98430.28;;;18.94;98.24
28588;BME280;15787;49.662;10.162;2023-09-18T01:59:50;98428.13;;;18.78;99.43
28588;BME280;15787;49.662;10.162;2023-09-18T02:02:24;98429.56;;;19.00;99.23
28588;BME280;15787;49.662;10.162;2023-09-18T02:05:17;98413.97;;;18.78;99.85
28588;BME280;15787;49.662;10.162;2023-09-18T02:07:50;98419.97;;;18.91;100.00
28588;BME280;15787;49.662;10.162;2023-09-18T02:10:25;98417.81;;;18.75;100.00
28588;BME280;15787;49.662;10.162;2023-09-18T02:12:59;98409.69;;;18.88;99.64
28588;BME280;15787;49.662;10.162;2023-09-18T02:15:31;98421.16;;;18.48;100.00
28588;BME280;15787;49.662;10.162;2023-09-18T02:18:06;98420.81;;;18.41;100.00
28588;BME280;15787;49.662;10.162;2023-09-18T02:20:40;98398.94;;;18.67;100.00
28588;BME280;15787;49.662;10.162;2023-09-18T02:23:13;98393.41;;;18.78;100.00
28588;BME280;15787;49.662;10.162;2023-09-18T02:25:55;98408.28;;;18.47;100.00
28588;BME280;15787;49.662;10.162;2023-09-18T02:28:28;98401.28;;;18.68;100.00
28588;BME280;15787;49.662;10.162;2023-09-18T02:31:02;98392.53;;;18.41;100.00
28588;BME280;15787;49.662;10.162;2023-09-18T02:33:36;98380.22;;;18.44;100.00
28588;BME280;15787;49.662;10.162;2023-09-18T02:36:09;98383.81;;;18.70;100.00
28588;BME280;15787;49.662;10.162;2023-09-18T02:38:42;98369.25;;;18.82;100.00
28588;BME280;15787;49.662;10.162;2023-09-18T02:41:16;98357.78;;;18.97;100.00
28588;BME280;15787;49.662;10.162;2023-09-18T02:43:50;98347.06;;;19.07;100.00
28588;BME280;15787;49.662;10.162;2023-09-18T02:46:23;98348.19;;;19.26;100.00
28588;BME280;15787;49.662;10.162;2023-09-18T02:48:56;98352.63;;;19.38;100.00
28588;BME280;15787;49.662;10.162;2023-09-18T02:51:29;98345.25;;;19.51;100.00
28588;BME280;15787;49.662;10.162;2023-09-18T02:54:03;98348.66;;;19.67;100.00
28588;BME280;15787;49.662;10.162;2023-09-18T02:56:38;98354.78;;;19.54;100.00
28588;BME280;15787;49.662;10.162;2023-09-18T02:59:11;98360.22;;;19.69;100.00
28588;BME280;15787;49.662;10.162;2023-09-18T03:01:45;98353.44;;;19.44;100.00
28588;BME280;15787;49.662;10.162;2023-09-18T03:04:19;98351.69;;;19.52;100.00
28588;BME280;15787;49.662;10.162;2023-09-18T03:06:52;98347.38;;;19.73;99.83
28588;BME280;15787;49.662;10.162;2023-09-18T03:09:25;98358.50;;;19.88;98.72
28588;BME280;15787;49.662;10.162;2023-09-18T03:12:00;98352.63;;;20.08;97.74
28588;BME280;15787;49.662;10.162;2023-09-18T03:14:33;98354.63;;;19.85;98.82
28588;BME280;15787;49.662;10.162;2023-09-18T03:17:07;98357.09;;;19.50;98.97
28588;BME280;15787;49.662;10.162;2023-09-18T03:19:40;98354.63;;;19.26;100.00
28588;BME280;15787;49.662;10.162;2023-09-18T03:22:15;98350.88;;;19.46;100.00
28588;BME280;15787;49.662;10.162;2023-09-18T03:24:48;98369.47;;;19.64;99.70
28588;BME280;15787;49.662;10.162;2023-09-18T03:27:23;98464.81;;;18.73;100.00
28588;BME280;15787;49.662;10.162;2023-09-18T03:30:01;98511.53;;;18.88;100.00
28588;BME280;15787;49.662;10.162;2023-09-18T03:32:34;98465.72;;;19.52;100.00
28588;BME280;15787;49.662;10.162;2023-09-18T03:35:08;98461.03;;;19.92;100.00
28588;BME280;15787;49.662;10.162;2023-09-18T03:37:47;98458.94;;;19.87;100.00
28588;BME280;15787;49.662;10.162;2023-09-18T03:40:21;98451.59;;;20.17;100.00
28588;BME280;15787;49.662;10.162;2023-09-18T03:42:55;98430.00;;;20.25;99.17
28588;BME280;15787;49.662;10.162;2023-09-18T03:45:28;98437.22;;;20.37;99.35
28588;BME280;15787;49.662;10.162;2023-09-18T03:48:02;98444.63;;;20.12;100.00
28588;BME280;15787;49.662;10.162;2023-09-18T03:50:35;98413.72;;;20.20;100.00
28588;BME280;15787;49.662;10.162;2023-09-18T03:53:08;98390.25;;;20.19;100.00
28588;BME280;15787;49.662;10.162;2023-09-18T03:55:41;98391.59;;;20.30;100.00
28588;BME280;15787;49.662;10.162;2023-09-18T03:58:15;98378.44;;;20.21;100.00
28588;BME280;15787;49.662;10.162;2023-09-18T04:00:48;98378.34;;;19.93;100.00
28588;BME280;15787;49.662;10.162;2023-09-18T04:03:23;98374.66;;;19.71;100.00
28588;BME280;15787;49.662;10.162;2023-09-18T04:05:56;98374.66;;;19.71;100.00
28588;BME280;15787;49.662;10.162;2023-09-18T04:08:29;98378.81;;;19.75;100.00
28588;BME280;15787;49.662;10.162;2023-09-18T04:11:04;98374.84;;;19.56;100.00
28588;BME280;15787;49.662;10.162;2023-09-18T04:13:42;98380.88;;;19.75;100.00
28588;BME280;15787;49.662;10.162;2023-09-18T04:16:15;98386.44;;;19.58;100.00
28588;BME280;15787;49.662;10.162;2023-09-18T04:18:49;98398.81;;;19.18;100.00
28588;BME280;15787;49.662;10.162;2023-09-18T04:21:22;98413.72;;;19.50;100.00
28588;BME280;15787;49.662;10.162;2023-09-18T04:23:57;98390.75;;;19.06;100.00
28588;BME280;15787;49.662;10.162;2023-09-18T04:26:30;98394.09;;;19.41;100.00
28588;BME280;15787;49.662;10.162;2023-09-18T04:29:06;98397.69;;;19.05;100.00
28588;BME280;15787;49.662;10.162;2023-09-18T04:31:39;98383.97;;;18.92;100.00
28588;BME280;15787;49.662;10.162;2023-09-18T04:34:12;98389.94;;;19.36;100.00
28588;BME280;15787;49.662;10.162;2023-09-18T04:36:46;98393.81;;;19.39;100.00
28588;BME280;15787;49.662;10.162;2023-09-18T04:39:21;98389.44;;;19.38;100.00
28588;BME280;15787;49.662;10.162;2023-09-18T04:41:54;98389.47;;;19.01;100.00
28588;BME280;15787;49.662;10.162;2023-09-18T04:44:29;98385.41;;;19.13;100.00
28588;BME280;15787;49.662;10.162;2023-09-18T04:47:02;98392.97;;;19.33;100.00
28588;BME280;15787;49.662;10.162;2023-09-18T04:49:36;98409.19;;;19.32;100.00
28588;BME280;15787;49.662;10.162;2023-09-18T04:52:09;98420.81;;;19.34;100.00
28588;BME280;15787;49.662;10.162;2023-09-18T04:54:42;98425.03;;;19.13;100.00
28588;BME280;15787;49.662;10.162;2023-09-18T04:57:15;98422.03;;;19.28;100.00
28588;BME280;15787;49.662;10.162;2023-09-18T04:59:52;98435.56;;;19.13;100.00
28588;BME280;15787;49.662;10.162;2023-09-18T05:02:44;98431.03;;;18.89;100.00
28588;BME280;15787;49.662;10.162;2023-09-18T05:05:18;98428.75;;;18.93;100.00
28588;BME280;15787;49.662;10.162;2023-09-18T05:07:51;98452.00;;;19.09;100.00
28588;BME280;15787;49.662;10.162;2023-09-18T05:10:24;98458.94;;;19.39;100.00
28588;BME280;15787;49.662;10.162;2023-09-18T05:12:57;98474.00;;;18.93;100.00
28588;BME280;15787;49.662;10.162;2023-09-18T05:15:32;98467.69;;;19.04;100.00
28588;BME280;15787;49.662;10.162;2023-09-18T05:18:05;98463.13;;;19.18;100.00
28588;BME280;15787;49.662;10.162;2023-09-18T05:20:39;98470.72;;;19.32;100.00
28588;BME280;15787;49.662;10.162;2023-09-18T05:23:12;98465.44;;;19.14;100.00
28588;BME280;15787;49.662;10.162;2023-09-18T05:25:49;98467.34;;;18.97;100.00
28588;BME280;15787;49.662;10.162;2023-09-18T05:28:22;98453.84;;;19.12;100.00
28588;BME280;15787;49.662;10.162;2023-09-18T05:30:57;98447.88;;;19.41;100.00
28588;BME280;15787;49.662;10.162;2023-09-18T05:33:30;98447.94;;;18.84;100.00
28588;BME280;15787;49.662;10.162;2023-09-18T05:36:03;98450.66;;;19.35;100.00
28588;BME280;15787;49.662;10.162;2023-09-18T05:38:36;98434.09;;;19.60;100.00
28588;BME280;15787;49.662;10.162;2023-09-18T05:41:09;98432.09;;;19.29;100.00
28588;BME280;15787;49.662;10.162;2023-09-18T05:43:42;98428.72;;;19.30;100.00
28588;BME280;15787;49.662;10.162;2023-09-18T05:46:16;98404.06;;;19.36;100.00
28588;BME280;15787;49.662;10.162;2023-09-18T05:48:49;98403.50;;;19.27;100.00
28588;BME280;15787;49.662;10.162;2023-09-18T05:51:24;98396.00;;;19.18;100.00
28588;BME280;15787;49.662;10.162;2023-09-18T05:53:57;98389.28;;;19.16;100.00
28588;BME280;15787;49.662;10.162;2023-09-18T05:56:30;98389.03;;;19.14;100.00
28588;BME280;15787;49.662;10.162;2023-09-18T05:59:03;98388.81;;;19.23;100.00
28588;BME280;15787;49.662;10.162;2023-09-18T06:01:37;98381.91;;;19.29;100.00
28588;BME280;15787;49.662;10.162;2023-09-18T06:04:10;98360.16;;;19.46;100.00
28588;BME280;15787;49.662;10.162;2023-09-18T06:06:44;98336.84;;;19.26;100.00
28588;BME280;15787;49.662;10.162;2023-09-18T06:09:18;98335.97;;;19.51;100.00
28588;BME280;15787;49.662;10.162;2023-09-18T06:11:51;98346.56;;;19.62;100.00
28588;BME280;15787;49.662;10.162;2023-09-18T06:14:23;98313.38;;;19.62;100.00
28588;BME280;15787;49.662;10.162;2023-09-18T06:16:58;98309.97;;;19.47;100.00
28588;BME280;15787;49.662;10.162;2023-09-18T06:19:31;98313.72;;;19.33;100.00
28588;BME280;15787;49.662;10.162;2023-09-18T06:22:04;98287.88;;;19.73;100.00
28588;BME280;15787;49.662;10.162;2023-09-18T06:24:38;98317.91;;;19.43;100.00
28588;BME280;15787;49.662;10.162;2023-09-18T06:27:11;98312.94;;;19.27;100.00
28588;BME280;15787;49.662;10.162;2023-09-18T06:29:44;98309.53;;;19.12;100.00
28588;BME280;15787;49.662;10.162;2023-09-18T06:32:18;98300.97;;;19.54;100.00
28588;BME280;15787;49.662;10.162;2023-09-18T06:34:51;98308.31;;;19.29;100.00
28588;BME280;15787;49.662;10.162;2023-09-18T06:37:24;98311.47;;;19.42;100.00
28588;BME280;15787;49.662;10.162;2023-09-18T06:39:58;98310.00;;;19.58;100.00
28588;BME280;15787;49.662;10.162;2023-09-18T06:42:31;98319.53;;;19.55;100.00
28588;BME280;15787;49.662;10.162;2023-09-18T06:45:06;98354.31;;;19.67;100.00
28588;BME280;15787;49.662;10.162;2023-09-18T06:47:41;98357.75;;;20.04;100.00
28588;BME280;15787;49.662;10.162;2023-09-18T06:50:14;98366.19;;;19.76;100.00
28588;BME280;15787;49.662;10.162;2023-09-18T06:52:46;98344.34;;;19.93;100.00
28588;BME280;15787;49.662;10.162;2023-09-18T06:55:21;98358.78;;;20.01;100.00
28588;BME280;15787;49.662;10.162;2023-09-18T06:57:53;98361.91;;;20.14;100.00
28588;BME280;15787;49.662;10.162;2023-09-18T07:00:26;98356.56;;;20.33;100.00
28588;BME280;15787;49.662;10.162;2023-09-18T07:03:01;98344.44;;;20.38;100.00
28588;BME280;15787;49.662;10.162;2023-09-18T07:05:35;98343.69;;;20.48;100.00
28588;BME280;15787;49.662;10.162;2023-09-18T07:08:08;98355.00;;;20.65;100.00
28588;BME280;15787;49.662;10.162;2023-09-18T07:10:44;98345.72;;;20.81;100.00
28588;BME280;15787;49.662;10.162;2023-09-18T07:13:17;98353.47;;;20.92;100.00
28588;BME280;15787;49.662;10.162;2023-09-18T07:15:50;98365.06;;;20.83;100.00
28588;BME280;15787;49.662;10.162;2023-09-18T07:18:24;98360.94;;;20.89;100.00
28588;BME280;15787;49.662;10.162;2023-09-18T07:20:57;98379.50;;;21.01;99.08
28588;BME280;15787;49.662;10.162;2023-09-18T07:23:30;98387.75;;;20.99;97.23
28588;BME280;15787;49.662;10.162;2023-09-18T07:26:03;98388.81;;;21.07;97.27
28588;BME280;15787;49.662;10.162;2023-09-18T07:28:37;98405.06;;;21.12;97.19
28588;BME280;15787;49.662;10.162;2023-09-18T07:31:11;98401.44;;;21.17;96.42
28588;BME280;15787;49.662;10.162;2023-09-18T07:33:47;98422.34;;;21.14;95.80
28588;BME280;15787;49.662;10.162;2023-09-18T07:36:20;98417.63;;;21.50;94.52
28588;BME280;15787;49.662;10.162;2023-09-18T07:38:53;98418.38;;;21.56;94.02
28588;BME280;15787;49.662;10.162;2023-09-18T07:41:28;98426.88;;;21.67;94.51
28588;BME280;15787;49.662;10.162;2023-09-18T07:44:01;98419.91;;;21.68;93.49
28588;BME280;15787;49.662;10.162;2023-09-18T07:46:33;98434.34;;;21.70;92.98
28588;BME280;15787;49.662;10.162;2023-09-18T07:49:09;98434.63;;;21.67;93.22
28588;BME280;15787;49.662;10.162;2023-09-18T07:51:43;98435.63;;;21.75;92.39
28588;BME280;15787;49.662;10.162;2023-09-18T07:54:17;98452.09;;;22.04;92.31
28588;BME280;15787;49.662;10.162;2023-09-18T07:56:49;98446.34;;;22.10;92.50
28588;BME280;15787;49.662;10.162;2023-09-18T07:59:23;98452.38;;;21.95;91.91
28588;BME280;15787;49.662;10.162;2023-09-18T08:01:57;98459.09;;;21.97;91.60
28588;BME280;15787;49.662;10.162;2023-09-18T08:04:32;98463.81;;;22.36;90.11
28588;BME280;15787;49.662;10.162;2023-09-18T08:07:05;98469.97;;;22.45;89.53
28588;BME280;15787;49.662;10.162;2023-09-18T08:09:38;98481.84;;;22.49;88.25
28588;BME280;15787;49.662;10.162;2023-09-18T08:12:11;98485.75;;;22.41;88.90
28588;BME280;15787;49.662;10.162;2023-09-18T08:14:44;98482.75;;;22.22;90.66
28588;BME280;15787;49.662;10.162;2023-09-18T08:17:18;98487.09;;;22.34;90.94
28588;BME280;15787;49.662;10.162;2023-09-18T08:19:52;98493.50;;;22.46;90.25
28588;BME280;15787;49.662;10.162;2023-09-18T08:22:26;98490.84;;;22.64;87.85
28588;BME280;15787;49.662;10.162;2023-09-18T08:24:59;98494.22;;;22.57;88.74
28588;BME280;15787;49.662;10.162;2023-09-18T08:27:32;98490.84;;;22.64;87.18
28588;BME280;15787;49.662;10.162;2023-09-18T08:30:07;98496.81;;;22.55;93.26
28588;BME280;15787;49.662;10.162;2023-09-18T08:32:42;98504.91;;;22.87;91.85
28588;BME280;15787;49.662;10.162;2023-09-18T08:35:17;98499.63;;;23.02;87.31
28588;BME280;15787;49.662;10.162;2023-09-18T08:37:49;98495.72;;;22.70;89.36
28588;BME280;15787;49.662;10.162;2023-09-18T08:40:23;98506.69;;;23.25;86.33
28588;BME280;15787;49.662;10.162;2023-09-18T08:42:57;98501.13;;;23.44;80.89
28588;BME280;15787;49.662;10.162;2023-09-18T08:45:37;98504.25;;;23.40;81.24
28588;BME280;15787;49.662;10.162;2023-09-18T08:48:10;98509.00;;;23.62;81.90
28588;BME280;15787;49.662;10.162;2023-09-18T08:50:45;98506.84;;;23.44;82.61
28588;BME280;15787;49.662;10.162;2023-09-18T08:53:21;98494.91;;;23.45;81.38
28588;BME280;15787;49.662;10.162;2023-09-18T08:55:54;98494.16;;;23.39;80.67
28588;BME280;15787;49.662;10.162;2023-09-18T08:58:31;98480.47;;;23.38;80.00
28588;BME280;15787;49.662;10.162;2023-09-18T09:01:06;98489.28;;;23.64;80.09
28588;BME280;15787;49.662;10.162;2023-09-18T09:03:42;98485.53;;;23.74;78.05
28588;BME280;15787;49.662;10.162;2023-09-18T09:06:18;98485.94;;;23.60;76.23
28588;BME280;15787;49.662;10.162;2023-09-18T09:08:51;98492.31;;;23.42;78.35
28588;BME280;15787;49.662;10.162;2023-09-18T09:11:24;98477.84;;;23.40;78.29
28588;BME280;15787;49.662;10.162;2023-09-18T09:14:15;98478.72;;;23.59;77.55
28588;BME280;15787;49.662;10.162;2023-09-18T09:16:51;98482.63;;;23.56;77.30
28588;BME280;15787;49.662;10.162;2023-09-18T09:19:28;98461.84;;;23.61;77.19
28588;BME280;15787;49.662;10.162;2023-09-18T09:22:04;98472.94;;;23.40;78.92
28588;BME280;15787;49.662;10.162;2023-09-18T09:24:39;98458.75;;;23.59;78.52
28588;BME280;15787;49.662;10.162;2023-09-18T09:27:16;98461.63;;;24.02;76.76
28588;BME280;15787;49.662;10.162;2023-09-18T09:29:58;98472.06;;;23.51;76.23
28588;BME280;15787;49.662;10.162;2023-09-18T09:32:32;98455.25;;;23.71;76.78
28588;BME280;15787;49.662;10.162;2023-09-18T09:35:06;98464.84;;;23.44;76.63
28588;BME280;15787;49.662;10.162;2023-09-18T09:37:40;98472.22;;;23.58;75.59
28588;BME280;15787;49.662;10.162;2023-09-18T09:40:13;98467.78;;;23.63;76.07
28588;BME280;15787;49.662;10.162;2023-09-18T09:42:47;98461.06;;;23.84;76.21
28588;BME280;15787;49.662;10.162;2023-09-18T09:45:20;98459.63;;;23.97;75.12
28588;BME280;15787;49.662;10.162;2023-09-18T09:47:53;98469.13;;;24.05;74.79
28588;BME280;15787;49.662;10.162;2023-09-18T09:50:30;98494.16;;;23.69;74.40
28588;BME280;15787;49.662;10.162;2023-09-18T09:53:05;98493.78;;;24.02;74.50
28588;BME280;15787;49.662;10.162;2023-09-18T09:55:38;98507.38;;;23.66;73.71
28588;BME280;15787;49.662;10.162;2023-09-18T09:58:11;98501.84;;;23.50;73.27
28588;BME280;15787;49.662;10.162;2023-09-18T10:00:47;98506.97;;;23.57;74.08
28588;BME280;15787;49.662;10.162;2023-09-18T10:03:22;98516.31;;;23.22;75.65
28588;BME280;15787;49.662;10.162;2023-09-18T10:05:56;98513.28;;;23.44;75.99
28588;BME280;15787;49.662;10.162;2023-09-18T10:08:32;98513.94;;;23.26;76.25
28588;BME280;15787;49.662;10.162;2023-09-18T10:11:07;98529.50;;;22.90;78.00
28588;BME280;15787;49.662;10.162;2023-09-18T10:13:46;98537.97;;;23.01;78.56
28588;BME280;15787;49.662;10.162;2023-09-18T10:16:23;98543.75;;;22.84;79.51
28588;BME280;15787;49.662;10.162;2023-09-18T10:19:07;98546.13;;;23.15;79.13
28588;BME280;15787;49.662;10.162;2023-09-18T10:21:46;98550.91;;;22.96;81.15
28588;BME280;15787;49.662;10.162;2023-09-18T10:24:25;98548.59;;;22.95;83.74
28588;BME280;15787;49.662;10.162;2023-09-18T10:26:59;98552.56;;;22.81;82.41
28588;BME280;15787;49.662;10.162;2023-09-18T10:29:35;98571.06;;;22.52;84.02
28588;BME280;15787;49.662;10.162;2023-09-18T10:32:08;98560.06;;;22.15;86.88
28588;BME280;15787;49.662;10.162;2023-09-18T10:34:42;98574.63;;;21.84;87.44
28588;BME280;15787;49.662;10.162;2023-09-18T10:37:16;98571.00;;;21.67;90.22
28588;BME280;15787;49.662;10.162;2023-09-18T10:39:53;98573.84;;;21.61;91.92
28588;BME280;15787;49.662;10.162;2023-09-18T10:42:27;98569.22;;;21.25;93.30
28588;BME280;15787;49.662;10.162;2023-09-18T10:45:02;98570.47;;;21.07;95.60
28588;BME280;15787;49.662;10.162;2023-09-18T10:47:38;98569.13;;;20.86;97.98
28588;BME280;15787;49.662;10.162;2023-09-18T10:50:12;98573.22;;;20.85;99.51
28588;BME280;15787;49.662;10.162;2023-09-18T10:52:56;98577.13;;;20.82;100.00
28588;BME280;15787;49.662;10.162;2023-09-18T10:55:31;98563.66;;;20.66;100.00
28588;BME280;15787;49.662;10.162;2023-09-18T10:58:06;98564.38;;;20.55;100.00
28588;BME280;15787;49.662;10.162;2023-09-18T11:00:41;98559.22;;;20.59;100.00
28588;BME280;15787;49.662;10.162;2023-09-18T11:03:18;98544.25;;;20.48;100.00
28588;BME280;15787;49.662;10.162;2023-09-18T11:07:49;98541.47;;;20.64;100.00
28588;BME280;15787;49.662;10.162;2023-09-18T11:11:03;98555.41;;;20.68;100.00
28588;BME280;15787;49.662;10.162;2023-09-18T11:13:44;98561.38;;;20.98;100.00
28588;BME280;15787;49.662;10.162;2023-09-18T11:16:33;98571.00;;;21.17;100.00
28588;BME280;15787;49.662;10.162;2023-09-18T11:19:11;98571.25;;;21.19;100.00
28588;BME280;15787;49.662;10.162;2023-09-18T11:21:46;98565.25;;;20.89;100.00
28588;BME280;15787;49.662;10.162;2023-09-18T11:24:20;98565.31;;;21.06;100.00
28588;BME280;15787;49.662;10.162;2023-09-18T11:26:55;98556.53;;;21.26;100.00
28588;BME280;15787;49.662;10.162;2023-09-18T11:29:28;98572.28;;;21.43;100.00
28588;BME280;15787;49.662;10.162;2023-09-18T11:32:04;98573.56;;;21.20;100.00
28588;BME280;15787;49.662;10.162;2023-09-18T11:34:37;98577.19;;;21.26;100.00
28588;BME280;15787;49.662;10.162;2023-09-18T11:37:19;98572.53;;;21.18;100.00
28588;BME280;15787;49.662;10.162;2023-09-18T11:39:52;98575.66;;;21.14;100.00
28588;BME280;15787;49.662;10.162;2023-09-18T11:42:26;98575.06;;;20.99;100.00
28588;BME280;15787;49.662;10.162;2023-09-18T11:45:00;98574.34;;;21.21;100.00
28588;BME280;15787;49.662;10.162;2023-09-18T11:47:33;98576.16;;;21.46;100.00
28588;BME280;15787;49.662;10.162;2023-09-18T11:50:14;98578.38;;;20.75;100.00
28588;BME280;15787;49.662;10.162;2023-09-18T11:52:52;98585.81;;;20.67;100.00
28588;BME280;15787;49.662;10.162;2023-09-18T11:55:26;98580.41;;;20.64;100.00
28588;BME280;15787;49.662;10.162;2023-09-18T11:58:02;98576.78;;;20.58;100.00
28588;BME280;15787;49.662;10.162;2023-09-18T12:00:36;98574.94;;;20.55;100.00
28588;BME280;15787;49.662;10.162;2023-09-18T12:03:18;98565.66;;;20.49;100.00
28588;BME280;15787;49.662;10.162;2023-09-18T12:05:58;98577.38;;;20.90;100.00
28588;BME280;15787;49.662;10.162;2023-09-18T12:08:32;98579.94;;;20.88;100.00
28588;BME280;15787;49.662;10.162;2023-09-18T12:11:05;98586.44;;;20.99;100.00
28588;BME280;15787;49.662;10.162;2023-09-18T12:13:41;98565.81;;;21.04;100.00
28588;BME280;15787;49.662;10.162;2023-09-18T12:16:14;98568.31;;;20.80;100.00
28588;BME280;15787;49.662;10.162;2023-09-18T12:18:47;98566.03;;;21.01;100.00
28588;BME280;15787;49.662;10.162;2023-09-18T12:21:20;98562.16;;;20.98;100.00
28588;BME280;15787;49.662;10.162;2023-09-18T12:23:54;98561.16;;;21.01;100.00
28588;BME280;15787;49.662;10.162;2023-09-18T12:26:27;98572.28;;;21.10;100.00
28588;BME280;15787;49.662;10.162;2023-09-18T12:29:04;98564.03;;;21.23;100.00
28588;BME280;15787;49.662;10.162;2023-09-18T12:31:39;98569.19;;;21.19;100.00
28588;BME280;15787;49.662;10.162;2023-09-18T12:34:15;98561.97;;;21.24;100.00
28588;BME280;15787;49.662;10.162;2023-09-18T12:36:50;98558.63;;;21.20;100.00
28588;BME280;15787;49.662;10.162;2023-09-18T12:39:23;98578.72;;;21.11;100.00
28588;BME280;15787;49.662;10.162;2023-09-18T12:41:56;98572.53;;;21.18;100.00
28588;BME280;15787;49.662;10.162;2023-09-18T12:45:23;98579.00;;;21.07;100.00
28588;BME280;15787;49.662;10.162;2023-09-18T12:47:48;98568.66;;;21.15;100.00
28588;BME280;15787;49.662;10.162;2023-09-18T12:50:23;98563.72;;;20.94;100.00
28588;BME280;15787;49.662;10.162;2023-09-18T12:53:10;98562.41;;;21.00;100.00
28588;BME280;15787;49.662;10.162;2023-09-18T12:55:43;98558.84;;;21.11;100.00
28588;BME280;15787;49.662;10.162;2023-09-18T12:58:19;98579.72;;;21.02;100.00
28588;BME280;15787;49.662;10.162;2023-09-18T13:00:53;98575.38;;;21.18;100.00
28588;BME280;15787;49.662;10.162;2023-09-18T13:03:26;98580.22;;;20.95;99.91
28588;BME280;15787;49.662;10.162;2023-09-18T13:06:07;98582.34;;;21.06;97.39
28588;BME280;15787;49.662;10.162;2023-09-18T13:08:44;98582.09;;;21.09;97.95
28588;BME280;15787;49.662;10.162;2023-09-18T13:11:17;98583.13;;;21.06;96.92
28588;BME280;15787;49.662;10.162;2023-09-18T13:13:57;98578.91;;;20.79;96.07
28588;BME280;15787;49.662;10.162;2023-09-18T13:16:33;98580.72;;;20.88;96.19
28588;BME280;15787;49.662;10.162;2023-09-18T13:19:09;98567.75;;;20.59;96.51
28588;BME280;15787;49.662;10.162;2023-09-18T13:21:48;98569.34;;;20.71;96.98
28588;BME280;15787;49.662;10.162;2023-09-18T13:24:26;98572.34;;;20.46;96.13
28588;BME280;15787;49.662;10.162;2023-09-18T13:27:00;98565.66;;;20.54;96.78